sensor_id;sensor_type;location;lat;lon;timestamp;pressure;altitude;pressure_sealevel;temperature;humidity
37852;BME280;23691;52.486;4.650;2022-11-18T00:01:22;99396.75;;;9.54;84.26
37852;BME280;23691;52.486;4.650;2022-11-18T00:03:49;99385.66;;;9.50;84.15
37852;BME280;23691;52.486;4.650;2022-11-18T00:06:20;99395.03;;;9.46;84.04
37852;BME280;23691;52.486;4.650;2022-11-18T00:08:46;99397.06;;;9.44;84.44
37852;BME280;23691;52.486;4.650;2022-11-18T00:11:18;99405.91;;;9.44;84.41
37852;BME280;23691;52.486;4.650;2022-11-18T00:14:03;99413.28;;;9.42;84.39
37852;BME280;23691;52.486;4.650;2022-11-18T00:19:13;99422.75;;;9.45;84.57
37852;BME280;23691;52.486;4.650;2022-11-18T00:21:38;99431.59;;;9.45;84.37
37852;BME280;23691;52.486;4.650;2022-11-18T00:24:04;99429.13;;;9.44;84.27
37852;BME280;23691;52.486;4.650;2022-11-18T00:26:30;99434.63;;;9.42;84.33
37852;BME280;23691;52.486;4.650;2022-11-18T00:28:55;99435.03;;;9.39;84.53
37852;BME280;23691;52.486;4.650;2022-11-18T00:31:20;99447.38;;;9.40;84.18
37852;BME280;23691;52.486;4.650;2022-11-18T00:33:46;99447.72;;;9.37;84.27
37852;BME280;23691;52.486;4.650;2022-11-18T00:36:11;99447.13;;;9.35;84.38
37852;BME280;23691;52.486;4.650;2022-11-18T00:38:37;99453.28;;;9.36;84.35
37852;BME280;23691;52.486;4.650;2022-11-18T00:41:09;99444.44;;;9.35;84.47
37852;BME280;23691;52.486;4.650;2022-11-18T00:43:35;99453.63;;;9.33;84.47
37852;BME280;23691;52.486;4.650;2022-11-18T00:46:01;99453.44;;;9.34;84.41
37852;BME280;23691;52.486;4.650;2022-11-18T00:48:27;99459.63;;;9.35;84.60
37852;BME280;23691;52.486;4.650;2022-11-18T00:51:07;99455.13;;;9.35;84.24
37852;BME280;23691;52.486;4.650;2022-11-18T00:53:32;99464.13;;;9.34;84.34
37852;BME280;23691;52.486;4.650;2022-11-18T00:55:58;99465.16;;;9.33;84.40
37852;BME280;23691;52.486;4.650;2022-11-18T00:58:23;99467.19;;;9.31;84.60
37852;BME280;23691;52.486;4.650;2022-11-18T01:00:50;99480.53;;;9.31;84.31
37852;BME280;23691;52.486;4.650;2022-11-18T01:03:16;99482.38;;;9.31;84.42
37852;BME280;23691;52.486;4.650;2022-11-18T01:05:42;99481.09;;;9.27;84.11
37852;BME280;23691;52.486;4.650;2022-11-18T01:08:08;99488.47;;;9.24;84.22
37852;BME280;23691;52.486;4.650;2022-11-18T01:10:35;99490.31;;;9.24;84.49
37852;BME280;23691;52.486;4.650;2022-11-18T01:13:01;99482.31;;;9.24;84.49
37852;BME280;23691;52.486;4.650;2022-11-18T01:15:52;99494.63;;;9.25;84.41
37852;BME280;23691;52.486;4.650;2022-11-18T01:18:20;99493.34;;;9.21;84.29
37852;BME280;23691;52.486;4.650;2022-11-18T01:20:46;99488.38;;;9.18;84.17
37852;BME280;23691;52.486;4.650;2022-11-18T01:23:13;99490.44;;;9.16;84.26
37852;BME280;23691;52.486;4.650;2022-11-18T01:25:40;99495.94;;;9.14;84.37
37852;BME280;23691;52.486;4.650;2022-11-18T01:28:06;99500.25;;;9.15;84.19
37852;BME280;23691;52.486;4.650;2022-11-18T01:30:33;99499.81;;;9.12;84.44
37852;BME280;23691;52.486;4.650;2022-11-18T01:32:59;99500.94;;;9.02;84.16
37852;BME280;23691;52.486;4.650;2022-11-18T01:35:25;99507.28;;;9.01;84.63
37852;BME280;23691;52.486;4.650;2022-11-18T01:37:50;99502.13;;;9.00;84.63
37852;BME280;23691;52.486;4.650;2022-11-18T01:40:15;99509.16;;;9.01;84.63
37852;BME280;23691;52.486;4.650;2022-11-18T01:42:41;99514.28;;;9.02;84.60
37852;BME280;23691;52.486;4.650;2022-11-18T01:45:20;99519.44;;;9.04;84.52
37852;BME280;23691;52.486;4.650;2022-11-18T01:48:03;99524.78;;;9.04;84.74
37852;BME280;23691;52.486;4.650;2022-11-18T01:50:31;99527.56;;;8.96;84.49
37852;BME280;23691;52.486;4.650;2022-11-18T01:53:03;99525.72;;;8.96;84.77
37852;BME280;23691;52.486;4.650;2022-11-18T01:55:32;99527.34;;;8.97;84.77
37852;BME280;23691;52.486;4.650;2022-11-18T01:58:06;99528.38;;;8.96;84.75
37852;BME280;23691;52.486;4.650;2022-11-18T02:00:35;99539.03;;;8.96;84.72
37852;BME280;23691;52.486;4.650;2022-11-18T02:03:01;99553.38;;;8.95;84.90
37852;BME280;23691;52.486;4.650;2022-11-18T02:05:28;99556.25;;;8.94;84.88
37852;BME280;23691;52.486;4.650;2022-11-18T02:07:54;99555.41;;;8.93;84.93
37852;BME280;23691;52.486;4.650;2022-11-18T02:10:22;99558.06;;;8.93;84.89
37852;BME280;23691;52.486;4.650;2022-11-18T02:12:51;99559.25;;;8.91;85.06
37852;BME280;23691;52.486;4.650;2022-11-18T02:15:25;99567.47;;;8.89;85.02
37852;BME280;23691;52.486;4.650;2022-11-18T02:18:09;99568.28;;;8.90;85.13
37852;BME280;23691;52.486;4.650;2022-11-18T02:20:45;99575.25;;;8.91;84.76
37852;BME280;23691;52.486;4.650;2022-11-18T02:23:41;99569.38;;;8.95;84.88
37852;BME280;23691;52.486;4.650;2022-11-18T02:31:34;99570.97;;;8.90;84.88
37852;BME280;23691;52.486;4.650;2022-11-18T02:36:57;99576.03;;;8.85;85.07
37852;BME280;23691;52.486;4.650;2022-11-18T02:39:31;99581.53;;;8.83;84.92
37852;BME280;23691;52.486;4.650;2022-11-18T02:41:58;99579.72;;;8.84;85.25
37852;BME280;23691;52.486;4.650;2022-11-18T02:44:28;99583.19;;;8.84;85.03
37852;BME280;23691;52.486;4.650;2022-11-18T02:46:58;99581.53;;;8.83;85.00
37852;BME280;23691;52.486;4.650;2022-11-18T02:49:35;99589.34;;;8.85;84.97
37852;BME280;23691;52.486;4.650;2022-11-18T02:52:03;99590.38;;;8.84;85.08
37852;BME280;23691;52.486;4.650;2022-11-18T02:54:32;99593.22;;;8.82;85.03
37852;BME280;23691;52.486;4.650;2022-11-18T02:57:00;99594.41;;;8.79;85.10
37852;BME280;23691;52.486;4.650;2022-11-18T02:59:27;99589.91;;;8.80;85.17
37852;BME280;23691;52.486;4.650;2022-11-18T03:01:54;99590.94;;;8.79;85.20
37852;BME280;23691;52.486;4.650;2022-11-18T03:04:20;99592.75;;;8.78;85.18
37852;BME280;23691;52.486;4.650;2022-11-18T03:07:11;99601.75;;;8.77;85.09
37852;BME280;23691;52.486;4.650;2022-11-18T03:09:41;99603.63;;;8.77;85.07
37852;BME280;23691;52.486;4.650;2022-11-18T03:14:49;99606.44;;;8.75;85.16
37852;BME280;23691;52.486;4.650;2022-11-18T03:17:23;99591.00;;;8.71;85.13
37852;BME280;23691;52.486;4.650;2022-11-18T03:22:37;99603.88;;;8.67;85.60
37852;BME280;23691;52.486;4.650;2022-11-18T03:25:08;99612.03;;;8.66;85.34
37852;BME280;23691;52.486;4.650;2022-11-18T03:30:23;99620.41;;;8.63;85.72
37852;BME280;23691;52.486;4.650;2022-11-18T03:32:59;99616.56;;;8.65;85.59
37852;BME280;23691;52.486;4.650;2022-11-18T03:35:29;99623.53;;;8.66;85.76
37852;BME280;23691;52.486;4.650;2022-11-18T03:38:22;99622.53;;;8.67;85.58
37852;BME280;23691;52.486;4.650;2022-11-18T03:40:50;99621.25;;;8.63;85.71
37852;BME280;23691;52.486;4.650;2022-11-18T03:43:21;99622.91;;;8.64;85.51
37852;BME280;23691;52.486;4.650;2022-11-18T03:45:51;99626.56;;;8.63;85.72
37852;BME280;23691;52.486;4.650;2022-11-18T03:48:23;99629.25;;;8.63;85.84
37852;BME280;23691;52.486;4.650;2022-11-18T03:50:54;99640.44;;;8.58;85.74
37852;BME280;23691;52.486;4.650;2022-11-18T03:53:24;99637.78;;;8.58;86.10
37852;BME280;23691;52.486;4.650;2022-11-18T03:55:54;99637.13;;;8.56;85.93
37852;BME280;23691;52.486;4.650;2022-11-18T04:01:42;99648.44;;;8.58;86.32
37852;BME280;23691;52.486;4.650;2022-11-18T04:04:10;99643.31;;;8.57;86.07
37852;BME280;23691;52.486;4.650;2022-11-18T04:06:47;99649.09;;;8.60;86.13
37852;BME280;23691;52.486;4.650;2022-11-18T04:09:21;99649.09;;;8.60;86.25
37852;BME280;23691;52.486;4.650;2022-11-18T04:11:53;99657.75;;;8.63;86.27
37852;BME280;23691;52.486;4.650;2022-11-18T04:14:36;99667.38;;;8.64;86.31
37852;BME280;23691;52.486;4.650;2022-11-18T04:17:09;99673.22;;;8.67;86.12
37852;BME280;23691;52.486;4.650;2022-11-18T04:19:35;99674.69;;;8.70;86.24
37852;BME280;23691;52.486;4.650;2022-11-18T04:22:01;99677.34;;;8.70;86.24
37852;BME280;23691;52.486;4.650;2022-11-18T04:24:26;99674.50;;;8.71;86.25
37852;BME280;23691;52.486;4.650;2022-11-18T04:26:52;99684.97;;;8.73;86.10
37852;BME280;23691;52.486;4.650;2022-11-18T04:29:18;99693.78;;;8.73;85.90
37852;BME280;23691;52.486;4.650;2022-11-18T04:31:44;99692.31;;;8.71;86.23
37852;BME280;23691;52.486;4.650;2022-11-18T04:34:09;99691.34;;;8.72;86.26
37852;BME280;23691;52.486;4.650;2022-11-18T04:36:35;99693.34;;;8.70;86.42
37852;BME280;23691;52.486;4.650;2022-11-18T04:39:00;99699.03;;;8.67;86.54
37852;BME280;23691;52.486;4.650;2022-11-18T04:41:25;99703.53;;;8.66;86.56
37852;BME280;23691;52.486;4.650;2022-11-18T04:44:11;99709.06;;;8.65;86.79
37852;BME280;23691;52.486;4.650;2022-11-18T04:46:43;99706.19;;;8.66;86.91
37852;BME280;23691;52.486;4.650;2022-11-18T04:49:11;99713.38;;;8.66;86.70
37852;BME280;23691;52.486;4.650;2022-11-18T04:51:38;99719.72;;;8.65;86.68
37852;BME280;23691;52.486;4.650;2022-11-18T04:54:04;99718.34;;;8.69;86.47
37852;BME280;23691;52.486;4.650;2022-11-18T04:56:29;99723.34;;;8.72;86.50
37852;BME280;23691;52.486;4.650;2022-11-18T04:58:57;99718.16;;;8.70;86.55
37852;BME280;23691;52.486;4.650;2022-11-18T05:01:23;99731.50;;;8.70;86.57
37852;BME280;23691;52.486;4.650;2022-11-18T05:03:48;99740.31;;;8.71;86.69
37852;BME280;23691;52.486;4.650;2022-11-18T05:06:14;99745.50;;;8.72;86.75
37852;BME280;23691;52.486;4.650;2022-11-18T05:08:39;99743.47;;;8.74;86.69
37852;BME280;23691;52.486;4.650;2022-11-18T05:11:05;99748.44;;;8.77;86.65
37852;BME280;23691;52.486;4.650;2022-11-18T05:13:50;99745.78;;;8.77;86.71
37852;BME280;23691;52.486;4.650;2022-11-18T05:16:16;99739.78;;;8.75;86.64
37852;BME280;23691;52.486;4.650;2022-11-18T05:18:42;99743.94;;;8.78;86.76
37852;BME280;23691;52.486;4.650;2022-11-18T05:21:07;99752.59;;;8.80;86.72
37852;BME280;23691;52.486;4.650;2022-11-18T05:23:34;99751.56;;;8.81;86.85
37852;BME280;23691;52.486;4.650;2022-11-18T05:26:06;99755.53;;;8.85;86.78
37852;BME280;23691;52.486;4.650;2022-11-18T05:28:33;99752.22;;;8.83;86.96
37852;BME280;23691;52.486;4.650;2022-11-18T05:30:58;99761.91;;;8.84;86.84
37852;BME280;23691;52.486;4.650;2022-11-18T05:33:24;99764.38;;;8.86;86.99
37852;BME280;23691;52.486;4.650;2022-11-18T05:35:49;99759.03;;;8.86;87.37
37852;BME280;23691;52.486;4.650;2022-11-18T05:38:15;99763.19;;;8.88;87.08
37852;BME280;23691;52.486;4.650;2022-11-18T05:40:43;99758.50;;;8.90;87.10
37852;BME280;23691;52.486;4.650;2022-11-18T05:43:09;99765.22;;;8.86;87.21
37852;BME280;23691;52.486;4.650;2022-11-18T05:45:38;99768.06;;;8.85;87.24
37852;BME280;23691;52.486;4.650;2022-11-18T05:48:04;99762.06;;;8.82;87.47
37852;BME280;23691;52.486;4.650;2022-11-18T05:50:32;99776.72;;;8.87;87.40
37852;BME280;23691;52.486;4.650;2022-11-18T05:52:58;99774.03;;;8.87;87.61
37852;BME280;23691;52.486;4.650;2022-11-18T05:55:27;99771.38;;;8.87;87.74
37852;BME280;23691;52.486;4.650;2022-11-18T05:57:54;99782.50;;;8.90;87.74
37852;BME280;23691;52.486;4.650;2022-11-18T06:00:19;99778.00;;;8.91;87.89
37852;BME280;23691;52.486;4.650;2022-11-18T06:02:46;99784.50;;;8.88;87.78
37852;BME280;23691;52.486;4.650;2022-11-18T06:05:13;99781.84;;;8.88;87.96
37852;BME280;23691;52.486;4.650;2022-11-18T06:07:41;99788.03;;;8.89;87.80
37852;BME280;23691;52.486;4.650;2022-11-18T06:10:11;99793.00;;;8.92;87.92
37852;BME280;23691;52.486;4.650;2022-11-18T06:12:43;99797.97;;;8.95;88.08
37852;BME280;23691;52.486;4.650;2022-11-18T06:15:20;99797.31;;;8.93;87.74
37852;BME280;23691;52.486;4.650;2022-11-18T06:18:00;99800.81;;;8.93;87.68
37852;BME280;23691;52.486;4.650;2022-11-18T06:20:27;99807.34;;;8.91;88.01
37852;BME280;23691;52.486;4.650;2022-11-18T06:22:55;99811.69;;;8.92;87.78
37852;BME280;23691;52.486;4.650;2022-11-18T06:25:21;99818.00;;;8.91;87.97
37852;BME280;23691;52.486;4.650;2022-11-18T06:27:49;99819.31;;;8.95;88.05
37852;BME280;23691;52.486;4.650;2022-11-18T06:30:16;99821.97;;;8.95;87.85
37852;BME280;23691;52.486;4.650;2022-11-18T06:32:41;99820.16;;;8.95;87.58
37852;BME280;23691;52.486;4.650;2022-11-18T06:35:07;99825.47;;;8.95;88.04
37852;BME280;23691;52.486;4.650;2022-11-18T06:37:33;99834.50;;;8.94;87.98
37852;BME280;23691;52.486;4.650;2022-11-18T06:39:59;99830.81;;;8.95;88.16
37852;BME280;23691;52.486;4.650;2022-11-18T06:42:27;99838.47;;;8.98;87.89
37852;BME280;23691;52.486;4.650;2022-11-18T06:45:18;99841.78;;;9.00;87.85
37852;BME280;23691;52.486;4.650;2022-11-18T06:47:43;99848.78;;;9.01;87.86
37852;BME280;23691;52.486;4.650;2022-11-18T06:50:09;99863.31;;;8.99;87.99
37852;BME280;23691;52.486;4.650;2022-11-18T06:52:34;99867.81;;;8.98;88.04
37852;BME280;23691;52.486;4.650;2022-11-18T06:55:00;99870.50;;;8.98;88.24
37852;BME280;23691;52.486;4.650;2022-11-18T06:57:25;99873.78;;;9.00;88.17
37852;BME280;23691;52.486;4.650;2022-11-18T06:59:51;99873.63;;;9.02;88.04
37852;BME280;23691;52.486;4.650;2022-11-18T07:02:16;99881.47;;;9.03;87.97
37852;BME280;23691;52.486;4.650;2022-11-18T07:04:43;99877.78;;;9.05;88.05
37852;BME280;23691;52.486;4.650;2022-11-18T07:07:09;99876.94;;;9.04;87.88
37852;BME280;23691;52.486;4.650;2022-11-18T07:09:35;99893.94;;;9.03;87.96
37852;BME280;23691;52.486;4.650;2022-11-18T07:12:01;99893.94;;;9.03;87.89
37852;BME280;23691;52.486;4.650;2022-11-18T07:14:27;99901.78;;;9.05;87.81
37852;BME280;23691;52.486;4.650;2022-11-18T07:16:52;99905.28;;;9.05;87.84
37852;BME280;23691;52.486;4.650;2022-11-18T07:19:18;99912.47;;;9.05;87.86
37852;BME280;23691;52.486;4.650;2022-11-18T07:21:46;99922.13;;;9.06;87.81
37852;BME280;23691;52.486;4.650;2022-11-18T07:24:12;99920.09;;;9.08;87.65
37852;BME280;23691;52.486;4.650;2022-11-18T07:26:38;99931.13;;;9.05;87.71
37852;BME280;23691;52.486;4.650;2022-11-18T07:29:04;99928.31;;;9.06;87.77
37852;BME280;23691;52.486;4.650;2022-11-18T07:31:30;99939.63;;;9.08;87.98
37852;BME280;23691;52.486;4.650;2022-11-18T07:33:56;99946.63;;;9.09;87.67
37852;BME280;23691;52.486;4.650;2022-11-18T07:36:24;99949.47;;;9.08;87.79
37852;BME280;23691;52.486;4.650;2022-11-18T07:38:50;99949.94;;;9.11;87.82
37852;BME280;23691;52.486;4.650;2022-11-18T07:41:21;99946.47;;;9.11;87.58
37852;BME280;23691;52.486;4.650;2022-11-18T07:43:48;99957.13;;;9.11;87.86
37852;BME280;23691;52.486;4.650;2022-11-18T07:48:48;99962.47;;;9.11;87.72
37852;BME280;23691;52.486;4.650;2022-11-18T07:51:15;99970.63;;;9.09;87.86
37852;BME280;23691;52.486;4.650;2022-11-18T07:53:45;99970.63;;;9.09;87.79
37852;BME280;23691;52.486;4.650;2022-11-18T07:56:14;99974.97;;;9.10;87.74
37852;BME280;23691;52.486;4.650;2022-11-18T07:58:40;99969.47;;;9.12;87.92
37852;BME280;23691;52.486;4.650;2022-11-18T08:01:17;99969.09;;;9.15;87.69
37852;BME280;23691;52.486;4.650;2022-11-18T08:03:44;99981.25;;;9.17;87.38
37852;BME280;23691;52.486;4.650;2022-11-18T08:06:12;99981.75;;;9.21;87.31
37852;BME280;23691;52.486;4.650;2022-11-18T08:08:38;99990.41;;;9.23;87.35
37852;BME280;23691;52.486;4.650;2022-11-18T08:11:05;99992.72;;;9.26;87.43
37852;BME280;23691;52.486;4.650;2022-11-18T08:13:31;99989.03;;;9.27;87.27
37852;BME280;23691;52.486;4.650;2022-11-18T08:16:26;99995.03;;;9.29;87.20
37852;BME280;23691;52.486;4.650;2022-11-18T08:18:54;100008.53;;;9.28;87.19
37852;BME280;23691;52.486;4.650;2022-11-18T08:21:21;100007.56;;;9.29;87.13
37852;BME280;23691;52.486;4.650;2022-11-18T08:23:56;100013.56;;;9.31;87.15
37852;BME280;23691;52.486;4.650;2022-11-18T08:26:22;100011.72;;;9.31;87.09
37852;BME280;23691;52.486;4.650;2022-11-18T08:28:49;100012.16;;;9.35;87.14
37852;BME280;23691;52.486;4.650;2022-11-18T08:31:23;100014.69;;;9.36;87.00
37852;BME280;23691;52.486;4.650;2022-11-18T08:34:13;100010.16;;;9.37;86.85
37852;BME280;23691;52.486;4.650;2022-11-18T08:36:50;100025.72;;;9.33;86.91
37852;BME280;23691;52.486;4.650;2022-11-18T08:39:16;100022.03;;;9.34;87.03
37852;BME280;23691;52.486;4.650;2022-11-18T08:41:43;100026.66;;;9.40;87.01
37852;BME280;23691;52.486;4.650;2022-11-18T08:44:13;100022.47;;;9.46;86.83
37852;BME280;23691;52.486;4.650;2022-11-18T08:46:39;100021.28;;;9.49;86.82
37852;BME280;23691;52.486;4.650;2022-11-18T08:49:04;100031.59;;;9.52;86.97
37852;BME280;23691;52.486;4.650;2022-11-18T08:51:36;100029.56;;;9.54;86.77
37852;BME280;23691;52.486;4.650;2022-11-18T08:54:02;100038.72;;;9.59;86.50
37852;BME280;23691;52.486;4.650;2022-11-18T08:56:27;100043.16;;;9.67;86.43
37852;BME280;23691;52.486;4.650;2022-11-18T08:58:53;100030.47;;;9.69;86.07
37852;BME280;23691;52.486;4.650;2022-11-18T09:01:19;100042.81;;;9.70;86.42
37852;BME280;23691;52.486;4.650;2022-11-18T09:03:44;100041.28;;;9.76;86.15
37852;BME280;23691;52.486;4.650;2022-11-18T09:08:49;100051.78;;;9.77;86.11
37852;BME280;23691;52.486;4.650;2022-11-18T09:11:20;100060.44;;;9.79;85.88
37852;BME280;23691;52.486;4.650;2022-11-18T09:13:46;100058.25;;;9.83;85.99
37852;BME280;23691;52.486;4.650;2022-11-18T09:16:12;100066.03;;;9.93;85.63
37852;BME280;23691;52.486;4.650;2022-11-18T09:18:38;100062.16;;;9.95;85.74
37852;BME280;23691;52.486;4.650;2022-11-18T09:21:08;100065.50;;;9.97;85.87
37852;BME280;23691;52.486;4.650;2022-11-18T09:23:36;100078.59;;;10.07;85.64
37852;BME280;23691;52.486;4.650;2022-11-18T09:26:07;100072.53;;;10.13;85.47
37852;BME280;23691;52.486;4.650;2022-11-18T09:28:33;100084.69;;;10.16;85.46
37852;BME280;23691;52.486;4.650;2022-11-18T09:33:30;100091.31;;;10.28;84.75
37852;BME280;23691;52.486;4.650;2022-11-18T09:35:56;100083.56;;;10.33;85.00
37852;BME280;23691;52.486;4.650;2022-11-18T09:38:21;100084.41;;;10.34;85.06
37852;BME280;23691;52.486;4.650;2022-11-18T09:43:59;100087.38;;;10.39;84.75
37852;BME280;23691;52.486;4.650;2022-11-18T09:49:29;100095.88;;;10.42;84.63
37852;BME280;23691;52.486;4.650;2022-11-18T09:51:56;100097.72;;;10.42;84.64
37852;BME280;23691;52.486;4.650;2022-11-18T09:54:29;100104.16;;;10.47;84.49
37852;BME280;23691;52.486;4.650;2022-11-18T09:56:56;100114.50;;;10.50;84.38
37852;BME280;23691;52.486;4.650;2022-11-18T09:59:23;100111.38;;;10.47;84.67
37852;BME280;23691;52.486;4.650;2022-11-18T10:04:47;100119.03;;;10.50;84.15
37852;BME280;23691;52.486;4.650;2022-11-18T10:07:17;100118.75;;;10.60;84.19
37852;BME280;23691;52.486;4.650;2022-11-18T10:09:47;100129.28;;;10.61;84.09
37852;BME280;23691;52.486;4.650;2022-11-18T10:25:32;100152.72;;;10.74;83.86
37852;BME280;23691;52.486;4.650;2022-11-18T10:28:13;100158.53;;;10.78;83.70
37852;BME280;23691;52.486;4.650;2022-11-18T10:30:39;100155.53;;;10.81;83.87
37852;BME280;23691;52.486;4.650;2022-11-18T10:35:46;100157.81;;;10.84;83.27
37852;BME280;23691;52.486;4.650;2022-11-18T10:40:42;100152.91;;;10.87;83.07
37852;BME280;23691;52.486;4.650;2022-11-18T10:43:12;100150.53;;;10.92;83.31
37852;BME280;23691;52.486;4.650;2022-11-18T10:46:15;100162.09;;;10.93;83.11
37852;BME280;23691;52.486;4.650;2022-11-18T10:48:41;100163.06;;;10.92;83.09
37852;BME280;23691;52.486;4.650;2022-11-18T10:52:04;100159.31;;;11.01;83.02
37852;BME280;23691;52.486;4.650;2022-11-18T11:02:16;100156.53;;;11.09;82.95
37852;BME280;23691;52.486;4.650;2022-11-18T11:04:43;100156.81;;;11.14;82.93
37852;BME280;23691;52.486;4.650;2022-11-18T11:07:34;100164.13;;;11.21;82.71
37852;BME280;23691;52.486;4.650;2022-11-18T11:12:28;100160.34;;;11.30;82.53
37852;BME280;23691;52.486;4.650;2022-11-18T11:15:17;100169.47;;;11.35;82.27
37852;BME280;23691;52.486;4.650;2022-11-18T11:17:51;100173.78;;;11.36;82.32
37852;BME280;23691;52.486;4.650;2022-11-18T11:20:38;100168.25;;;11.38;82.13
37852;BME280;23691;52.486;4.650;2022-11-18T11:23:14;100171.38;;;11.42;82.00
37852;BME280;23691;52.486;4.650;2022-11-18T11:28:28;100172.50;;;11.47;82.05
37852;BME280;23691;52.486;4.650;2022-11-18T11:31:17;100174.69;;;11.58;81.92
37852;BME280;23691;52.486;4.650;2022-11-18T11:33:58;100173.75;;;11.66;81.79
37852;BME280;23691;52.486;4.650;2022-11-18T11:42:34;100187.31;;;11.79;81.63
37852;BME280;23691;52.486;4.650;2022-11-18T11:45:46;100182.13;;;11.78;81.52
37852;BME280;23691;52.486;4.650;2022-11-18T11:51:05;100187.88;;;11.75;81.58
37852;BME280;23691;52.486;4.650;2022-11-18T11:56:37;100199.63;;;11.59;81.58
37852;BME280;23691;52.486;4.650;2022-11-18T12:04:52;100199.34;;;11.54;81.79
37852;BME280;23691;52.486;4.650;2022-11-18T12:07:21;100206.19;;;11.56;81.95
37852;BME280;23691;52.486;4.650;2022-11-18T12:10:07;100201.47;;;11.58;81.77
37852;BME280;23691;52.486;4.650;2022-11-18T12:12:51;100210.66;;;11.64;82.03
37852;BME280;23691;52.486;4.650;2022-11-18T12:18:36;100215.63;;;11.67;82.37
37852;BME280;23691;52.486;4.650;2022-11-18T12:21:04;100216.56;;;11.59;82.28
37852;BME280;23691;52.486;4.650;2022-11-18T12:23:31;100219.59;;;11.56;82.67
37852;BME280;23691;52.486;4.650;2022-11-18T12:28:41;100221.72;;;11.61;82.51
37852;BME280;23691;52.486;4.650;2022-11-18T12:33:59;100225.31;;;11.53;83.03
37852;BME280;23691;52.486;4.650;2022-11-18T12:36:36;100222.84;;;11.52;83.13
37852;BME280;23691;52.486;4.650;2022-11-18T12:44:33;100229.03;;;11.67;83.08
37852;BME280;23691;52.486;4.650;2022-11-18T12:47:02;100234.56;;;11.66;82.87
37852;BME280;23691;52.486;4.650;2022-11-18T12:51:58;100241.88;;;11.57;83.01
37852;BME280;23691;52.486;4.650;2022-11-18T12:54:32;100235.03;;;11.54;83.05
37852;BME280;23691;52.486;4.650;2022-11-18T12:57:02;100239.38;;;11.55;82.95
37852;BME280;23691;52.486;4.650;2022-11-18T12:59:35;100239.53;;;11.54;82.95
37852;BME280;23691;52.486;4.650;2022-11-18T13:04:38;100245.00;;;11.46;82.93
37852;BME280;23691;52.486;4.650;2022-11-18T13:07:05;100243.91;;;11.40;83.04
37852;BME280;23691;52.486;4.650;2022-11-18T13:09:52;100248.78;;;11.36;83.17
37852;BME280;23691;52.486;4.650;2022-11-18T13:12:18;100251.00;;;11.33;83.44
37852;BME280;23691;52.486;4.650;2022-11-18T13:14:44;100254.88;;;11.30;83.52
37852;BME280;23691;52.486;4.650;2022-11-18T13:17:34;100254.41;;;11.27;83.66
37852;BME280;23691;52.486;4.650;2022-11-18T13:20:22;100264.78;;;11.30;83.45
37852;BME280;23691;52.486;4.650;2022-11-18T13:22:52;100266.97;;;11.26;83.46
37852;BME280;23691;52.486;4.650;2022-11-18T13:25:37;100267.06;;;11.18;83.70
37852;BME280;23691;52.486;4.650;2022-11-18T13:30:29;100269.53;;;11.20;83.68
37852;BME280;23691;52.486;4.650;2022-11-18T13:32:57;100272.22;;;11.20;83.60
37852;BME280;23691;52.486;4.650;2022-11-18T13:35:23;100274.91;;;11.20;83.85
37852;BME280;23691;52.486;4.650;2022-11-18T13:37:58;100283.28;;;11.16;83.96
37852;BME280;23691;52.486;4.650;2022-11-18T13:40:30;100287.66;;;11.17;83.86
37852;BME280;23691;52.486;4.650;2022-11-18T13:43:02;100282.09;;;11.19;83.74
37852;BME280;23691;52.486;4.650;2022-11-18T13:45:28;100286.47;;;11.20;83.56
37852;BME280;23691;52.486;4.650;2022-11-18T13:48:00;100286.91;;;11.24;83.68
37852;BME280;23691;52.486;4.650;2022-11-18T13:50:35;100284.88;;;11.26;83.71
37852;BME280;23691;52.486;4.650;2022-11-18T13:55:51;100287.84;;;11.31;83.71
37852;BME280;23691;52.486;4.650;2022-11-18T13:58:30;100298.38;;;11.32;83.56
37852;BME280;23691;52.486;4.650;2022-11-18T14:01:02;100289.50;;;11.32;83.54
37852;BME280;23691;52.486;4.650;2022-11-18T14:06:04;100298.09;;;11.27;83.59
37852;BME280;23691;52.486;4.650;2022-11-18T14:08:31;100296.44;;;11.26;83.70
37852;BME280;23691;52.486;4.650;2022-11-18T14:10:58;100298.28;;;11.26;84.00
37852;BME280;23691;52.486;4.650;2022-11-18T14:15:52;100299.09;;;11.26;83.82
37852;BME280;23691;52.486;4.650;2022-11-18T14:18:35;100301.78;;;11.26;83.84
37852;BME280;23691;52.486;4.650;2022-11-18T14:21:03;100311.50;;;11.27;83.70
37852;BME280;23691;52.486;4.650;2022-11-18T14:23:30;100318.34;;;11.30;83.67
37852;BME280;23691;52.486;4.650;2022-11-18T14:25:57;100310.34;;;11.22;83.65
37852;BME280;23691;52.486;4.650;2022-11-18T14:28:33;100313.03;;;11.22;83.79
37852;BME280;23691;52.486;4.650;2022-11-18T14:31:02;100320.97;;;11.15;84.12
37852;BME280;23691;52.486;4.650;2022-11-18T14:33:35;100321.81;;;11.15;84.12
37852;BME280;23691;52.486;4.650;2022-11-18T14:36:09;100319.78;;;11.17;84.07
37852;BME280;23691;52.486;4.650;2022-11-18T14:38:49;100329.63;;;11.17;84.17
37852;BME280;23691;52.486;4.650;2022-11-18T14:41:17;100332.50;;;11.15;84.24
37852;BME280;23691;52.486;4.650;2022-11-18T14:44:03;100337.38;;;11.12;84.39
37852;BME280;23691;52.486;4.650;2022-11-18T14:46:30;100338.69;;;11.16;84.28
37852;BME280;23691;52.486;4.650;2022-11-18T14:48:56;100338.34;;;11.19;84.26
37852;BME280;23691;52.486;4.650;2022-11-18T14:51:21;100339.53;;;11.16;84.13
37852;BME280;23691;52.486;4.650;2022-11-18T14:53:47;100338.88;;;11.14;84.22
37852;BME280;23691;52.486;4.650;2022-11-18T14:56:29;100345.91;;;11.15;84.39
37852;BME280;23691;52.486;4.650;2022-11-18T14:58:56;100355.13;;;11.13;84.08
37852;BME280;23691;52.486;4.650;2022-11-18T15:01:21;100354.31;;;11.12;84.17
37852;BME280;23691;52.486;4.650;2022-11-18T15:03:52;100356.63;;;11.15;83.91
37852;BME280;23691;52.486;4.650;2022-11-18T15:06:19;100360.28;;;11.14;84.16
37852;BME280;23691;52.486;4.650;2022-11-18T15:08:47;100365.47;;;11.16;83.79
37852;BME280;23691;52.486;4.650;2022-11-18T15:11:13;100363.81;;;11.15;84.00
37852;BME280;23691;52.486;4.650;2022-11-18T15:13:39;100364.81;;;11.14;83.78
37852;BME280;23691;52.486;4.650;2022-11-18T15:16:17;100369.50;;;11.12;83.85